Terminal Aerodrome Forecast
Issued by NWS

Home | Current Version | Previous Version | Text Only | Print | Product List | Glossary On
Versions: 1 2 3 4 5 6 7 8 9 10 11 12 13 14 15 16
000
FTUS43 KDTX 222320
TAFPTK
TAF
KPTK 222320Z 2300/2324 VRB04KT P6SM SCT028 BKN040
     FM230300 02004KT 3SM BR SCT008 BKN035
     FM230600 04003KT 1 1/2SM BR OVC005
     FM231400 VRB04KT 4SM BR OVC012
     FM231600 22005KT P6SM OVC022 PROB30 2318/2321 4SM -TSRA
      BKN025CB OVC035
     FM232100 28010KT P6SM BKN035=

USA.gov is the U.S. government's official web portal to all federal, state and local government web resources and services.